sensor_id;sensor_type;location;lat;lon;timestamp;P1;durP1;ratioP1;P2;durP2;ratioP2
3757;SDS011;1894;51.038;13.692;2023-12-04T00:01:14;18.30;;;11.23;;
3757;SDS011;1894;51.038;13.692;2023-12-04T00:03:43;19.03;;;10.10;;
3757;SDS011;1894;51.038;13.692;2023-12-04T00:06:11;23.23;;;10.57;;
3757;SDS011;1894;51.038;13.692;2023-12-04T00:08:39;19.60;;;10.60;;
3757;SDS011;1894;51.038;13.692;2023-12-04T00:11:07;15.90;;;9.43;;
3757;SDS011;1894;51.038;13.692;2023-12-04T00:13:34;18.43;;;10.37;;
3757;SDS011;1894;51.038;13.692;2023-12-04T00:16:02;17.50;;;9.00;;
3757;SDS011;1894;51.038;13.692;2023-12-04T00:18:30;20.03;;;10.60;;
3757;SDS011;1894;51.038;13.692;2023-12-04T00:20:57;19.93;;;10.47;;
3757;SDS011;1894;51.038;13.692;2023-12-04T00:23:25;21.27;;;10.83;;
3757;SDS011;1894;51.038;13.692;2023-12-04T00:25:54;19.90;;;11.33;;
3757;SDS011;1894;51.038;13.692;2023-12-04T00:28:22;18.07;;;10.93;;
3757;SDS011;1894;51.038;13.692;2023-12-04T00:30:49;21.00;;;10.73;;
3757;SDS011;1894;51.038;13.692;2023-12-04T00:33:16;15.77;;;9.93;;
3757;SDS011;1894;51.038;13.692;2023-12-04T00:35:44;21.90;;;11.90;;
3757;SDS011;1894;51.038;13.692;2023-12-04T00:38:11;22.03;;;10.80;;
3757;SDS011;1894;51.038;13.692;2023-12-04T00:40:38;23.60;;;10.53;;
3757;SDS011;1894;51.038;13.692;2023-12-04T00:43:05;19.70;;;10.30;;
3757;SDS011;1894;51.038;13.692;2023-12-04T00:45:33;21.50;;;12.10;;
3757;SDS011;1894;51.038;13.692;2023-12-04T00:48:00;22.63;;;11.70;;
3757;SDS011;1894;51.038;13.692;2023-12-04T00:50:27;22.10;;;11.17;;
3757;SDS011;1894;51.038;13.692;2023-12-04T00:52:57;19.20;;;10.07;;
3757;SDS011;1894;51.038;13.692;2023-12-04T00:55:24;19.53;;;10.97;;
3757;SDS011;1894;51.038;13.692;2023-12-04T00:57:51;20.13;;;11.20;;
3757;SDS011;1894;51.038;13.692;2023-12-04T01:00:19;19.43;;;9.93;;
3757;SDS011;1894;51.038;13.692;2023-12-04T01:02:46;20.83;;;10.30;;
3757;SDS011;1894;51.038;13.692;2023-12-04T01:05:13;17.67;;;10.57;;
3757;SDS011;1894;51.038;13.692;2023-12-04T01:07:40;21.60;;;12.53;;
3757;SDS011;1894;51.038;13.692;2023-12-04T01:10:07;23.10;;;11.33;;
3757;SDS011;1894;51.038;13.692;2023-12-04T01:12:35;17.03;;;9.80;;
3757;SDS011;1894;51.038;13.692;2023-12-04T01:15:02;18.60;;;10.10;;
3757;SDS011;1894;51.038;13.692;2023-12-04T01:17:30;19.70;;;10.63;;
3757;SDS011;1894;51.038;13.692;2023-12-04T01:19:58;15.20;;;8.50;;
3757;SDS011;1894;51.038;13.692;2023-12-04T01:22:25;15.50;;;7.70;;
3757;SDS011;1894;51.038;13.692;2023-12-04T01:24:53;15.57;;;8.70;;
3757;SDS011;1894;51.038;13.692;2023-12-04T01:27:20;15.80;;;8.00;;
3757;SDS011;1894;51.038;13.692;2023-12-04T01:29:47;16.90;;;8.63;;
3757;SDS011;1894;51.038;13.692;2023-12-04T01:32:14;15.03;;;8.60;;
3757;SDS011;1894;51.038;13.692;2023-12-04T01:34:41;16.07;;;7.93;;
3757;SDS011;1894;51.038;13.692;2023-12-04T01:37:08;14.83;;;7.40;;
3757;SDS011;1894;51.038;13.692;2023-12-04T01:39:35;14.83;;;7.83;;
3757;SDS011;1894;51.038;13.692;2023-12-04T01:42:03;15.67;;;7.53;;
3757;SDS011;1894;51.038;13.692;2023-12-04T01:44:30;18.70;;;8.20;;
3757;SDS011;1894;51.038;13.692;2023-12-04T01:46:58;12.93;;;8.23;;
3757;SDS011;1894;51.038;13.692;2023-12-04T01:49:25;13.93;;;7.80;;
3757;SDS011;1894;51.038;13.692;2023-12-04T01:51:53;17.00;;;9.37;;
3757;SDS011;1894;51.038;13.692;2023-12-04T01:54:20;16.90;;;9.80;;
3757;SDS011;1894;51.038;13.692;2023-12-04T01:56:47;17.97;;;9.30;;
3757;SDS011;1894;51.038;13.692;2023-12-04T01:59:15;18.53;;;10.47;;
3757;SDS011;1894;51.038;13.692;2023-12-04T02:01:43;18.83;;;9.53;;
3757;SDS011;1894;51.038;13.692;2023-12-04T02:04:10;17.17;;;9.30;;
3757;SDS011;1894;51.038;13.692;2023-12-04T02:06:40;21.13;;;10.43;;
3757;SDS011;1894;51.038;13.692;2023-12-04T02:09:08;14.00;;;8.40;;
3757;SDS011;1894;51.038;13.692;2023-12-04T02:11:38;15.63;;;7.87;;
3757;SDS011;1894;51.038;13.692;2023-12-04T02:14:06;14.80;;;9.40;;
3757;SDS011;1894;51.038;13.692;2023-12-04T02:16:36;18.07;;;8.37;;
3757;SDS011;1894;51.038;13.692;2023-12-04T02:19:07;13.37;;;8.13;;
3757;SDS011;1894;51.038;13.692;2023-12-04T02:21:38;10.30;;;6.73;;
3757;SDS011;1894;51.038;13.692;2023-12-04T02:24:05;12.97;;;7.10;;
3757;SDS011;1894;51.038;13.692;2023-12-04T02:26:34;13.03;;;7.30;;
3757;SDS011;1894;51.038;13.692;2023-12-04T02:29:11;14.70;;;8.00;;
3757;SDS011;1894;51.038;13.692;2023-12-04T02:31:41;12.30;;;6.50;;
3757;SDS011;1894;51.038;13.692;2023-12-04T02:34:10;15.33;;;8.10;;
3757;SDS011;1894;51.038;13.692;2023-12-04T02:36:40;15.83;;;7.60;;
3757;SDS011;1894;51.038;13.692;2023-12-04T02:39:09;12.03;;;7.03;;
3757;SDS011;1894;51.038;13.692;2023-12-04T02:41:36;20.53;;;6.60;;
3757;SDS011;1894;51.038;13.692;2023-12-04T02:44:03;12.17;;;6.80;;
3757;SDS011;1894;51.038;13.692;2023-12-04T02:46:30;11.00;;;6.23;;
3757;SDS011;1894;51.038;13.692;2023-12-04T02:48:58;12.17;;;6.67;;
3757;SDS011;1894;51.038;13.692;2023-12-04T02:51:25;12.97;;;7.50;;
3757;SDS011;1894;51.038;13.692;2023-12-04T02:53:53;10.10;;;6.73;;
3757;SDS011;1894;51.038;13.692;2023-12-04T02:56:20;11.07;;;7.20;;
3757;SDS011;1894;51.038;13.692;2023-12-04T02:58:47;12.27;;;6.40;;
3757;SDS011;1894;51.038;13.692;2023-12-04T03:01:14;7.53;;;5.50;;
3757;SDS011;1894;51.038;13.692;2023-12-04T03:03:41;7.30;;;5.47;;
3757;SDS011;1894;51.038;13.692;2023-12-04T03:06:08;11.20;;;5.57;;
3757;SDS011;1894;51.038;13.692;2023-12-04T03:08:36;10.20;;;6.17;;
3757;SDS011;1894;51.038;13.692;2023-12-04T03:11:03;12.43;;;5.97;;
3757;SDS011;1894;51.038;13.692;2023-12-04T03:13:31;7.60;;;5.30;;
3757;SDS011;1894;51.038;13.692;2023-12-04T03:15:58;10.80;;;6.20;;
3757;SDS011;1894;51.038;13.692;2023-12-04T03:18:26;10.97;;;6.07;;
3757;SDS011;1894;51.038;13.692;2023-12-04T03:20:55;14.17;;;6.90;;
3757;SDS011;1894;51.038;13.692;2023-12-04T03:23:22;11.27;;;5.60;;
3757;SDS011;1894;51.038;13.692;2023-12-04T03:25:49;13.23;;;6.47;;
3757;SDS011;1894;51.038;13.692;2023-12-04T03:28:17;11.50;;;5.63;;
3757;SDS011;1894;51.038;13.692;2023-12-04T03:30:44;10.97;;;6.23;;
3757;SDS011;1894;51.038;13.692;2023-12-04T03:33:12;11.77;;;6.97;;
3757;SDS011;1894;51.038;13.692;2023-12-04T03:35:39;10.17;;;5.50;;
3757;SDS011;1894;51.038;13.692;2023-12-04T03:38:06;11.67;;;7.80;;
3757;SDS011;1894;51.038;13.692;2023-12-04T03:40:33;11.80;;;6.60;;
3757;SDS011;1894;51.038;13.692;2023-12-04T03:43:01;16.07;;;9.40;;
3757;SDS011;1894;51.038;13.692;2023-12-04T03:45:28;13.33;;;8.37;;
3757;SDS011;1894;51.038;13.692;2023-12-04T03:47:55;13.87;;;8.00;;
3757;SDS011;1894;51.038;13.692;2023-12-04T03:50:23;13.43;;;7.30;;
3757;SDS011;1894;51.038;13.692;2023-12-04T03:52:50;13.13;;;7.90;;
3757;SDS011;1894;51.038;13.692;2023-12-04T03:55:17;14.87;;;8.23;;
3757;SDS011;1894;51.038;13.692;2023-12-04T03:57:46;14.77;;;9.03;;
3757;SDS011;1894;51.038;13.692;2023-12-04T04:00:13;16.20;;;9.00;;
3757;SDS011;1894;51.038;13.692;2023-12-04T04:02:42;16.20;;;8.83;;
3757;SDS011;1894;51.038;13.692;2023-12-04T04:05:10;18.70;;;9.30;;
3757;SDS011;1894;51.038;13.692;2023-12-04T04:07:37;15.30;;;8.87;;
3757;SDS011;1894;51.038;13.692;2023-12-04T04:10:04;17.63;;;9.50;;
3757;SDS011;1894;51.038;13.692;2023-12-04T04:12:33;16.17;;;9.10;;
3757;SDS011;1894;51.038;13.692;2023-12-04T04:15:01;17.20;;;8.23;;
3757;SDS011;1894;51.038;13.692;2023-12-04T04:17:29;14.23;;;7.30;;
3757;SDS011;1894;51.038;13.692;2023-12-04T04:19:59;14.50;;;8.20;;
3757;SDS011;1894;51.038;13.692;2023-12-04T04:22:26;15.50;;;7.77;;
3757;SDS011;1894;51.038;13.692;2023-12-04T04:24:54;15.80;;;7.60;;
3757;SDS011;1894;51.038;13.692;2023-12-04T04:27:23;13.10;;;7.80;;
3757;SDS011;1894;51.038;13.692;2023-12-04T04:29:50;18.43;;;8.40;;
3757;SDS011;1894;51.038;13.692;2023-12-04T04:32:18;16.60;;;9.17;;
3757;SDS011;1894;51.038;13.692;2023-12-04T04:34:45;21.30;;;10.63;;
3757;SDS011;1894;51.038;13.692;2023-12-04T04:37:12;18.70;;;10.23;;
3757;SDS011;1894;51.038;13.692;2023-12-04T04:39:39;21.90;;;11.23;;
3757;SDS011;1894;51.038;13.692;2023-12-04T04:42:07;21.97;;;11.73;;
3757;SDS011;1894;51.038;13.692;2023-12-04T04:44:34;22.63;;;11.90;;
3757;SDS011;1894;51.038;13.692;2023-12-04T04:47:01;23.63;;;12.83;;
3757;SDS011;1894;51.038;13.692;2023-12-04T04:49:29;22.60;;;12.10;;
3757;SDS011;1894;51.038;13.692;2023-12-04T04:51:56;22.13;;;12.60;;
3757;SDS011;1894;51.038;13.692;2023-12-04T04:54:23;27.17;;;14.50;;
3757;SDS011;1894;51.038;13.692;2023-12-04T04:56:50;24.33;;;13.13;;
3757;SDS011;1894;51.038;13.692;2023-12-04T04:59:18;24.90;;;13.57;;
3757;SDS011;1894;51.038;13.692;2023-12-04T05:01:45;23.87;;;13.03;;
3757;SDS011;1894;51.038;13.692;2023-12-04T05:04:12;22.90;;;12.37;;
3757;SDS011;1894;51.038;13.692;2023-12-04T05:06:39;24.87;;;13.80;;
3757;SDS011;1894;51.038;13.692;2023-12-04T05:09:06;24.47;;;13.10;;
3757;SDS011;1894;51.038;13.692;2023-12-04T05:11:34;26.13;;;13.13;;
3757;SDS011;1894;51.038;13.692;2023-12-04T05:14:01;25.00;;;14.13;;
3757;SDS011;1894;51.038;13.692;2023-12-04T05:16:28;26.30;;;15.50;;
3757;SDS011;1894;51.038;13.692;2023-12-04T05:18:55;27.30;;;13.77;;
3757;SDS011;1894;51.038;13.692;2023-12-04T05:21:23;32.07;;;13.67;;
3757;SDS011;1894;51.038;13.692;2023-12-04T05:23:50;27.50;;;13.50;;
3757;SDS011;1894;51.038;13.692;2023-12-04T05:26:17;24.73;;;14.20;;
3757;SDS011;1894;51.038;13.692;2023-12-04T05:28:44;24.93;;;12.60;;
3757;SDS011;1894;51.038;13.692;2023-12-04T05:31:12;18.60;;;11.10;;
3757;SDS011;1894;51.038;13.692;2023-12-04T05:33:40;22.80;;;12.80;;
3757;SDS011;1894;51.038;13.692;2023-12-04T05:36:10;21.10;;;12.07;;
3757;SDS011;1894;51.038;13.692;2023-12-04T05:38:38;25.30;;;13.13;;
3757;SDS011;1894;51.038;13.692;2023-12-04T05:41:08;23.50;;;12.33;;
3757;SDS011;1894;51.038;13.692;2023-12-04T05:43:35;27.53;;;14.10;;
3757;SDS011;1894;51.038;13.692;2023-12-04T05:46:02;33.57;;;15.73;;
3757;SDS011;1894;51.038;13.692;2023-12-04T05:48:30;23.83;;;13.87;;
3757;SDS011;1894;51.038;13.692;2023-12-04T05:50:57;26.80;;;14.80;;
3757;SDS011;1894;51.038;13.692;2023-12-04T05:53:25;28.77;;;14.27;;
3757;SDS011;1894;51.038;13.692;2023-12-04T05:55:52;26.40;;;12.93;;
3757;SDS011;1894;51.038;13.692;2023-12-04T05:58:19;25.10;;;13.70;;
3757;SDS011;1894;51.038;13.692;2023-12-04T06:00:46;19.53;;;12.00;;
3757;SDS011;1894;51.038;13.692;2023-12-04T06:03:13;29.33;;;14.53;;
3757;SDS011;1894;51.038;13.692;2023-12-04T06:05:42;26.13;;;14.63;;
3757;SDS011;1894;51.038;13.692;2023-12-04T06:08:09;25.10;;;12.80;;
3757;SDS011;1894;51.038;13.692;2023-12-04T06:10:36;25.40;;;13.47;;
3757;SDS011;1894;51.038;13.692;2023-12-04T06:13:03;23.53;;;12.70;;
3757;SDS011;1894;51.038;13.692;2023-12-04T06:15:30;19.80;;;12.40;;
3757;SDS011;1894;51.038;13.692;2023-12-04T06:17:58;20.87;;;12.57;;
3757;SDS011;1894;51.038;13.692;2023-12-04T06:20:25;22.53;;;14.70;;
3757;SDS011;1894;51.038;13.692;2023-12-04T06:22:52;22.77;;;12.23;;
3757;SDS011;1894;51.038;13.692;2023-12-04T06:25:20;22.40;;;12.17;;
3757;SDS011;1894;51.038;13.692;2023-12-04T06:27:48;27.07;;;11.93;;
3757;SDS011;1894;51.038;13.692;2023-12-04T06:30:15;24.17;;;12.43;;
3757;SDS011;1894;51.038;13.692;2023-12-04T06:32:43;22.40;;;12.90;;
3757;SDS011;1894;51.038;13.692;2023-12-04T06:35:11;22.37;;;12.80;;
3757;SDS011;1894;51.038;13.692;2023-12-04T06:37:43;25.47;;;12.80;;
3757;SDS011;1894;51.038;13.692;2023-12-04T06:40:12;18.80;;;11.83;;
3757;SDS011;1894;51.038;13.692;2023-12-04T06:42:39;20.47;;;11.87;;
3757;SDS011;1894;51.038;13.692;2023-12-04T06:45:07;23.80;;;12.77;;
3757;SDS011;1894;51.038;13.692;2023-12-04T06:47:35;23.13;;;12.90;;
3757;SDS011;1894;51.038;13.692;2023-12-04T06:50:06;17.67;;;9.80;;
3757;SDS011;1894;51.038;13.692;2023-12-04T06:52:34;18.97;;;10.50;;
3757;SDS011;1894;51.038;13.692;2023-12-04T06:55:01;19.80;;;11.40;;
3757;SDS011;1894;51.038;13.692;2023-12-04T06:57:29;21.73;;;12.27;;
3757;SDS011;1894;51.038;13.692;2023-12-04T06:59:56;20.10;;;11.17;;
3757;SDS011;1894;51.038;13.692;2023-12-04T07:02:23;25.63;;;12.93;;
3757;SDS011;1894;51.038;13.692;2023-12-04T07:04:50;21.77;;;11.50;;
3757;SDS011;1894;51.038;13.692;2023-12-04T07:07:17;21.87;;;11.80;;
3757;SDS011;1894;51.038;13.692;2023-12-04T07:09:44;17.20;;;11.40;;
3757;SDS011;1894;51.038;13.692;2023-12-04T07:12:11;20.60;;;12.17;;
3757;SDS011;1894;51.038;13.692;2023-12-04T07:14:39;18.17;;;11.53;;
3757;SDS011;1894;51.038;13.692;2023-12-04T07:17:06;23.50;;;10.90;;
3757;SDS011;1894;51.038;13.692;2023-12-04T07:19:33;24.40;;;12.90;;
3757;SDS011;1894;51.038;13.692;2023-12-04T07:22:00;23.73;;;13.57;;
3757;SDS011;1894;51.038;13.692;2023-12-04T07:24:27;18.77;;;11.23;;
3757;SDS011;1894;51.038;13.692;2023-12-04T07:26:54;21.27;;;12.33;;
3757;SDS011;1894;51.038;13.692;2023-12-04T07:29:22;26.70;;;11.10;;
3757;SDS011;1894;51.038;13.692;2023-12-04T07:31:49;19.40;;;12.43;;
3757;SDS011;1894;51.038;13.692;2023-12-04T07:34:16;20.93;;;10.47;;
3757;SDS011;1894;51.038;13.692;2023-12-04T07:36:43;19.43;;;10.33;;
3757;SDS011;1894;51.038;13.692;2023-12-04T07:39:11;18.77;;;10.67;;
3757;SDS011;1894;51.038;13.692;2023-12-04T07:41:38;22.83;;;12.90;;
3757;SDS011;1894;51.038;13.692;2023-12-04T07:44:05;17.80;;;10.37;;
3757;SDS011;1894;51.038;13.692;2023-12-04T07:46:32;16.97;;;10.33;;
3757;SDS011;1894;51.038;13.692;2023-12-04T07:49:00;17.40;;;9.63;;
3757;SDS011;1894;51.038;13.692;2023-12-04T07:51:27;18.80;;;10.50;;
3757;SDS011;1894;51.038;13.692;2023-12-04T07:53:55;13.90;;;8.90;;
3757;SDS011;1894;51.038;13.692;2023-12-04T07:56:22;18.60;;;11.17;;
3757;SDS011;1894;51.038;13.692;2023-12-04T07:58:49;18.37;;;9.50;;
3757;SDS011;1894;51.038;13.692;2023-12-04T08:01:16;14.87;;;8.30;;
3757;SDS011;1894;51.038;13.692;2023-12-04T08:03:44;15.13;;;8.77;;
3757;SDS011;1894;51.038;13.692;2023-12-04T08:06:11;15.30;;;8.87;;
3757;SDS011;1894;51.038;13.692;2023-12-04T08:08:39;17.50;;;9.70;;
3757;SDS011;1894;51.038;13.692;2023-12-04T08:11:06;14.00;;;9.33;;
3757;SDS011;1894;51.038;13.692;2023-12-04T08:13:37;13.40;;;8.47;;
3757;SDS011;1894;51.038;13.692;2023-12-04T08:16:12;13.10;;;8.23;;
3757;SDS011;1894;51.038;13.692;2023-12-04T08:18:41;12.33;;;8.00;;
3757;SDS011;1894;51.038;13.692;2023-12-04T08:21:10;15.30;;;9.20;;
3757;SDS011;1894;51.038;13.692;2023-12-04T08:23:38;15.93;;;9.13;;
3757;SDS011;1894;51.038;13.692;2023-12-04T08:26:05;15.80;;;8.73;;
3757;SDS011;1894;51.038;13.692;2023-12-04T08:28:33;17.90;;;9.67;;
3757;SDS011;1894;51.038;13.692;2023-12-04T08:31:03;14.80;;;9.73;;
3757;SDS011;1894;51.038;13.692;2023-12-04T08:33:30;13.90;;;8.83;;
3757;SDS011;1894;51.038;13.692;2023-12-04T08:35:57;14.20;;;8.77;;
3757;SDS011;1894;51.038;13.692;2023-12-04T08:38:24;14.57;;;7.83;;
3757;SDS011;1894;51.038;13.692;2023-12-04T08:40:52;12.80;;;8.37;;
3757;SDS011;1894;51.038;13.692;2023-12-04T08:43:20;10.27;;;6.93;;
3757;SDS011;1894;51.038;13.692;2023-12-04T08:45:47;13.53;;;7.70;;
3757;SDS011;1894;51.038;13.692;2023-12-04T08:48:14;10.43;;;6.80;;
3757;SDS011;1894;51.038;13.692;2023-12-04T08:50:41;10.80;;;7.20;;
3757;SDS011;1894;51.038;13.692;2023-12-04T08:53:09;10.70;;;7.03;;
3757;SDS011;1894;51.038;13.692;2023-12-04T08:55:36;10.07;;;7.00;;
3757;SDS011;1894;51.038;13.692;2023-12-04T08:58:03;9.50;;;6.47;;
3757;SDS011;1894;51.038;13.692;2023-12-04T09:00:31;10.83;;;6.87;;
3757;SDS011;1894;51.038;13.692;2023-12-04T09:02:59;10.20;;;7.37;;
3757;SDS011;1894;51.038;13.692;2023-12-04T09:05:36;8.33;;;6.70;;
3757;SDS011;1894;51.038;13.692;2023-12-04T09:08:04;10.10;;;5.90;;
3757;SDS011;1894;51.038;13.692;2023-12-04T09:10:34;10.43;;;7.50;;
3757;SDS011;1894;51.038;13.692;2023-12-04T09:13:22;13.87;;;8.17;;
3757;SDS011;1894;51.038;13.692;2023-12-04T09:15:49;9.77;;;6.77;;
3757;SDS011;1894;51.038;13.692;2023-12-04T09:18:16;11.87;;;6.60;;
3757;SDS011;1894;51.038;13.692;2023-12-04T09:20:46;10.17;;;6.97;;
3757;SDS011;1894;51.038;13.692;2023-12-04T09:23:13;11.60;;;7.43;;
3757;SDS011;1894;51.038;13.692;2023-12-04T09:25:40;10.97;;;6.83;;
3757;SDS011;1894;51.038;13.692;2023-12-04T09:28:08;9.27;;;6.53;;
3757;SDS011;1894;51.038;13.692;2023-12-04T09:30:40;12.43;;;7.40;;
3757;SDS011;1894;51.038;13.692;2023-12-04T09:33:07;9.70;;;7.10;;
3757;SDS011;1894;51.038;13.692;2023-12-04T09:35:34;12.07;;;7.17;;
3757;SDS011;1894;51.038;13.692;2023-12-04T09:38:01;10.87;;;7.37;;
3757;SDS011;1894;51.038;13.692;2023-12-04T09:40:29;11.83;;;8.17;;
3757;SDS011;1894;51.038;13.692;2023-12-04T09:42:57;8.70;;;5.70;;
3757;SDS011;1894;51.038;13.692;2023-12-04T09:45:24;7.60;;;5.70;;
3757;SDS011;1894;51.038;13.692;2023-12-04T09:47:52;16.80;;;7.50;;
3757;SDS011;1894;51.038;13.692;2023-12-04T09:50:21;14.67;;;8.40;;
3757;SDS011;1894;51.038;13.692;2023-12-04T09:52:49;8.80;;;6.40;;
3757;SDS011;1894;51.038;13.692;2023-12-04T09:55:17;10.27;;;6.47;;
3757;SDS011;1894;51.038;13.692;2023-12-04T09:57:45;8.27;;;6.53;;
3757;SDS011;1894;51.038;13.692;2023-12-04T10:00:13;10.47;;;6.93;;
3757;SDS011;1894;51.038;13.692;2023-12-04T10:02:41;9.30;;;6.63;;
3757;SDS011;1894;51.038;13.692;2023-12-04T10:05:09;8.20;;;5.90;;
3757;SDS011;1894;51.038;13.692;2023-12-04T10:07:37;13.30;;;7.87;;
3757;SDS011;1894;51.038;13.692;2023-12-04T10:10:06;10.77;;;7.40;;
3757;SDS011;1894;51.038;13.692;2023-12-04T10:12:37;10.97;;;7.47;;
3757;SDS011;1894;51.038;13.692;2023-12-04T10:15:08;12.90;;;8.67;;
3757;SDS011;1894;51.038;13.692;2023-12-04T10:17:38;11.33;;;7.37;;
3757;SDS011;1894;51.038;13.692;2023-12-04T10:20:09;12.40;;;8.70;;
3757;SDS011;1894;51.038;13.692;2023-12-04T10:22:55;10.87;;;7.27;;
3757;SDS011;1894;51.038;13.692;2023-12-04T10:25:23;12.50;;;8.03;;
3757;SDS011;1894;51.038;13.692;2023-12-04T10:27:53;11.23;;;7.43;;
3757;SDS011;1894;51.038;13.692;2023-12-04T10:30:31;12.10;;;8.50;;
3757;SDS011;1894;51.038;13.692;2023-12-04T10:33:02;12.20;;;8.77;;
3757;SDS011;1894;51.038;13.692;2023-12-04T10:35:33;12.07;;;7.90;;
3757;SDS011;1894;51.038;13.692;2023-12-04T10:38:03;12.40;;;8.40;;
3757;SDS011;1894;51.038;13.692;2023-12-04T10:40:33;14.63;;;9.70;;
3757;SDS011;1894;51.038;13.692;2023-12-04T10:45:36;13.50;;;9.17;;
3757;SDS011;1894;51.038;13.692;2023-12-04T10:48:05;13.73;;;8.43;;
3757;SDS011;1894;51.038;13.692;2023-12-04T10:50:34;12.80;;;9.37;;
3757;SDS011;1894;51.038;13.692;2023-12-04T10:53:07;13.30;;;8.40;;
3757;SDS011;1894;51.038;13.692;2023-12-04T10:55:37;11.70;;;7.83;;
3757;SDS011;1894;51.038;13.692;2023-12-04T10:58:07;13.50;;;9.43;;
3757;SDS011;1894;51.038;13.692;2023-12-04T11:00:46;12.50;;;8.23;;
3757;SDS011;1894;51.038;13.692;2023-12-04T11:03:28;12.67;;;8.00;;
3757;SDS011;1894;51.038;13.692;2023-12-04T11:06:03;10.97;;;8.30;;
3757;SDS011;1894;51.038;13.692;2023-12-04T11:08:35;11.80;;;7.73;;
3757;SDS011;1894;51.038;13.692;2023-12-04T11:11:04;14.10;;;8.53;;
3757;SDS011;1894;51.038;13.692;2023-12-04T11:13:35;13.67;;;9.13;;
3757;SDS011;1894;51.038;13.692;2023-12-04T11:18:55;14.10;;;8.37;;
3757;SDS011;1894;51.038;13.692;2023-12-04T11:21:51;13.03;;;8.60;;
3757;SDS011;1894;51.038;13.692;2023-12-04T11:24:20;12.40;;;7.70;;
3757;SDS011;1894;51.038;13.692;2023-12-04T11:26:48;11.00;;;7.40;;
3757;SDS011;1894;51.038;13.692;2023-12-04T11:29:16;10.10;;;7.43;;
3757;SDS011;1894;51.038;13.692;2023-12-04T11:31:44;13.03;;;8.67;;
3757;SDS011;1894;51.038;13.692;2023-12-04T11:34:12;14.87;;;9.10;;
3757;SDS011;1894;51.038;13.692;2023-12-04T11:36:40;15.80;;;8.07;;
3757;SDS011;1894;51.038;13.692;2023-12-04T11:39:10;11.90;;;8.40;;
3757;SDS011;1894;51.038;13.692;2023-12-04T11:41:40;13.17;;;8.40;;
3757;SDS011;1894;51.038;13.692;2023-12-04T11:44:12;10.60;;;8.10;;
3757;SDS011;1894;51.038;13.692;2023-12-04T11:47:16;10.23;;;7.60;;
3757;SDS011;1894;51.038;13.692;2023-12-04T11:49:37;14.97;;;9.20;;
3757;SDS011;1894;51.038;13.692;2023-12-04T11:52:05;13.43;;;8.47;;
3757;SDS011;1894;51.038;13.692;2023-12-04T11:54:55;15.30;;;8.87;;
3757;SDS011;1894;51.038;13.692;2023-12-04T11:57:26;10.73;;;7.37;;
3757;SDS011;1894;51.038;13.692;2023-12-04T12:05:38;13.67;;;8.63;;
3757;SDS011;1894;51.038;13.692;2023-12-04T12:08:08;11.83;;;7.53;;
3757;SDS011;1894;51.038;13.692;2023-12-04T12:10:36;13.47;;;7.90;;
3757;SDS011;1894;51.038;13.692;2023-12-04T12:13:03;12.47;;;7.60;;
3757;SDS011;1894;51.038;13.692;2023-12-04T12:15:32;10.27;;;7.83;;
3757;SDS011;1894;51.038;13.692;2023-12-04T12:18:00;15.07;;;8.57;;
3757;SDS011;1894;51.038;13.692;2023-12-04T12:20:27;12.30;;;7.77;;
3757;SDS011;1894;51.038;13.692;2023-12-04T12:22:55;12.00;;;8.57;;
3757;SDS011;1894;51.038;13.692;2023-12-04T12:25:22;12.73;;;8.10;;
3757;SDS011;1894;51.038;13.692;2023-12-04T12:27:53;10.90;;;6.43;;
3757;SDS011;1894;51.038;13.692;2023-12-04T12:30:21;11.37;;;7.67;;
3757;SDS011;1894;51.038;13.692;2023-12-04T12:32:49;15.03;;;7.50;;
3757;SDS011;1894;51.038;13.692;2023-12-04T12:35:18;11.87;;;8.07;;
3757;SDS011;1894;51.038;13.692;2023-12-04T12:37:46;10.60;;;7.53;;
3757;SDS011;1894;51.038;13.692;2023-12-04T12:40:13;13.13;;;8.40;;
3757;SDS011;1894;51.038;13.692;2023-12-04T12:42:40;10.63;;;7.40;;
3757;SDS011;1894;51.038;13.692;2023-12-04T12:45:09;12.07;;;7.80;;
3757;SDS011;1894;51.038;13.692;2023-12-04T12:47:42;10.73;;;8.00;;
3757;SDS011;1894;51.038;13.692;2023-12-04T12:50:17;11.50;;;7.40;;
3757;SDS011;1894;51.038;13.692;2023-12-04T12:52:44;12.10;;;8.43;;
3757;SDS011;1894;51.038;13.692;2023-12-04T12:55:21;13.17;;;8.67;;
3757;SDS011;1894;51.038;13.692;2023-12-04T12:57:50;11.90;;;7.90;;
3757;SDS011;1894;51.038;13.692;2023-12-04T13:00:18;13.73;;;8.83;;
3757;SDS011;1894;51.038;13.692;2023-12-04T13:02:45;11.03;;;7.30;;
3757;SDS011;1894;51.038;13.692;2023-12-04T13:05:13;14.00;;;8.50;;
3757;SDS011;1894;51.038;13.692;2023-12-04T13:07:40;11.70;;;8.20;;
3757;SDS011;1894;51.038;13.692;2023-12-04T13:10:08;12.30;;;8.40;;
3757;SDS011;1894;51.038;13.692;2023-12-04T13:12:36;13.73;;;8.43;;
3757;SDS011;1894;51.038;13.692;2023-12-04T13:15:03;12.47;;;8.50;;
3757;SDS011;1894;51.038;13.692;2023-12-04T13:17:31;13.47;;;8.60;;
3757;SDS011;1894;51.038;13.692;2023-12-04T13:19:58;14.00;;;9.40;;
3757;SDS011;1894;51.038;13.692;2023-12-04T13:22:26;12.90;;;8.57;;
3757;SDS011;1894;51.038;13.692;2023-12-04T13:24:54;12.47;;;8.40;;
3757;SDS011;1894;51.038;13.692;2023-12-04T13:27:21;13.00;;;8.00;;
3757;SDS011;1894;51.038;13.692;2023-12-04T13:29:48;12.30;;;8.00;;
3757;SDS011;1894;51.038;13.692;2023-12-04T13:32:16;14.70;;;9.20;;
3757;SDS011;1894;51.038;13.692;2023-12-04T13:34:44;13.83;;;9.27;;
3757;SDS011;1894;51.038;13.692;2023-12-04T13:37:11;13.00;;;9.33;;
3757;SDS011;1894;51.038;13.692;2023-12-04T13:39:38;13.83;;;9.17;;
3757;SDS011;1894;51.038;13.692;2023-12-04T13:42:15;14.20;;;8.80;;
3757;SDS011;1894;51.038;13.692;2023-12-04T13:45:01;12.27;;;8.23;;
3757;SDS011;1894;51.038;13.692;2023-12-04T13:47:31;17.77;;;10.87;;
3757;SDS011;1894;51.038;13.692;2023-12-04T13:49:58;13.40;;;8.83;;
3757;SDS011;1894;51.038;13.692;2023-12-04T13:52:25;12.40;;;8.70;;
3757;SDS011;1894;51.038;13.692;2023-12-04T13:54:56;14.47;;;10.20;;
3757;SDS011;1894;51.038;13.692;2023-12-04T13:57:23;13.23;;;8.30;;
3757;SDS011;1894;51.038;13.692;2023-12-04T13:59:59;13.77;;;8.77;;
3757;SDS011;1894;51.038;13.692;2023-12-04T14:02:29;13.00;;;9.10;;
3757;SDS011;1894;51.038;13.692;2023-12-04T14:04:57;18.23;;;9.03;;
3757;SDS011;1894;51.038;13.692;2023-12-04T14:07:24;12.77;;;9.20;;
3757;SDS011;1894;51.038;13.692;2023-12-04T14:09:53;15.50;;;9.80;;
3757;SDS011;1894;51.038;13.692;2023-12-04T14:12:20;19.47;;;9.50;;
3757;SDS011;1894;51.038;13.692;2023-12-04T14:14:47;12.70;;;8.40;;
3757;SDS011;1894;51.038;13.692;2023-12-04T14:17:15;15.67;;;9.43;;
3757;SDS011;1894;51.038;13.692;2023-12-04T14:19:42;12.90;;;9.00;;
3757;SDS011;1894;51.038;13.692;2023-12-04T14:22:10;13.40;;;8.87;;
3757;SDS011;1894;51.038;13.692;2023-12-04T14:24:37;16.33;;;9.17;;
3757;SDS011;1894;51.038;13.692;2023-12-04T14:27:04;14.80;;;9.27;;
3757;SDS011;1894;51.038;13.692;2023-12-04T14:29:32;14.10;;;9.47;;
3757;SDS011;1894;51.038;13.692;2023-12-04T14:32:00;15.73;;;9.40;;
3757;SDS011;1894;51.038;13.692;2023-12-04T14:34:27;16.87;;;10.27;;
3757;SDS011;1894;51.038;13.692;2023-12-04T14:36:55;16.47;;;9.00;;
3757;SDS011;1894;51.038;13.692;2023-12-04T14:39:22;15.20;;;9.90;;
3757;SDS011;1894;51.038;13.692;2023-12-04T14:41:50;14.80;;;9.73;;
3757;SDS011;1894;51.038;13.692;2023-12-04T14:44:17;16.00;;;10.33;;
3757;SDS011;1894;51.038;13.692;2023-12-04T14:46:44;15.63;;;10.20;;
3757;SDS011;1894;51.038;13.692;2023-12-04T14:49:12;17.17;;;10.20;;
3757;SDS011;1894;51.038;13.692;2023-12-04T14:51:39;16.40;;;10.00;;
3757;SDS011;1894;51.038;13.692;2023-12-04T14:54:07;19.60;;;10.50;;
3757;SDS011;1894;51.038;13.692;2023-12-04T14:56:49;15.50;;;10.17;;
3757;SDS011;1894;51.038;13.692;2023-12-04T14:59:19;15.37;;;9.90;;
3757;SDS011;1894;51.038;13.692;2023-12-04T15:01:55;16.83;;;10.73;;